Time;durP1;ratioP1;P1;durP2;ratioP2;P2;SDS_P1;SDS_P2;PMS_P1;PMS_P2;Temp;Humidity;BMP_temperature;BMP_pressure;BME280_temperature;BME280_humidity;BME280_pressure;Samples;Min_cycle;Max_cycle;Signal;HPM_P1;HPM_P2
2022/07/29 00:01:39;;;;;;;7.18;4.20;;;;;;;25.59;55.03;99500.97;5093932;28;20202;-59
2022/07/29 00:04:06;;;;;;;6.57;4.00;;;;;;;25.52;55.25;99502.19;5093906;28;20202;-59
2022/07/29 00:06:33;;;;;;;5.68;4.57;;;;;;;25.56;55.35;99501.13;5091428;28;20439;-59
2022/07/29 00:09:00;;;;;;;4.70;4.30;;;;;;;25.55;55.56;99502.03;5089510;28;20191;-59
2022/07/29 00:11:26;;;;;;;5.15;4.57;;;;;;;25.53;55.25;99509.16;5073448;28;20195;-59
2022/07/29 00:13:53;;;;;;;6.00;4.75;;;;;;;25.48;55.90;99508.50;5079010;28;20222;-59
2022/07/29 00:16:20;;;;;;;5.05;4.47;;;;;;;25.46;55.85;99512.94;5093946;28;20206;-59
2022/07/29 00:18:48;;;;;;;7.57;4.57;;;;;;;25.44;56.04;99502.47;5093713;28;20244;-59
2022/07/29 00:21:15;;;;;;;7.43;4.67;;;;;;;25.39;56.27;99508.84;5093836;28;20248;-59
2022/07/29 00:23:42;;;;;;;5.15;4.28;;;;;;;25.34;56.44;99498.53;5093305;28;20657;-59
2022/07/29 00:26:09;;;;;;;7.93;5.18;;;;;;;25.31;57.02;99503.94;5093680;28;20202;-65
2022/07/29 00:28:36;;;;;;;6.32;5.25;;;;;;;25.26;57.06;99505.06;5093044;28;20198;-65
2022/07/29 00:31:03;;;;;;;7.93;5.15;;;;;;;24.92;57.30;99446.03;5075164;28;20750;-65
2022/07/29 00:33:30;;;;;;;7.68;5.10;;;;;;;25.29;57.58;99497.91;5073912;28;20199;-65
2022/07/29 00:35:57;;;;;;;7.47;5.00;;;;;;;25.29;57.53;99511.06;5074641;28;20194;-65
2022/07/29 00:38:24;;;;;;;6.32;5.05;;;;;;;25.28;57.53;99505.84;5085340;28;20199;-66
2022/07/29 00:40:51;;;;;;;6.28;5.38;;;;;;;25.26;57.80;99502.44;5091321;28;20685;-65
2022/07/29 00:43:18;;;;;;;5.33;4.83;;;;;;;25.22;57.85;99499.94;5088070;28;20248;-64
2022/07/29 00:45:45;;;;;;;6.60;5.13;;;;;;;25.16;58.55;99508.06;5089017;28;20187;-64
2022/07/29 00:48:12;;;;;;;7.03;5.38;;;;;;;25.15;58.19;99495.88;5093133;28;20183;-59
2022/07/29 00:50:39;;;;;;;7.57;6.00;;;;;;;25.14;58.58;99499.41;5092540;28;20186;-60
2022/07/29 00:53:08;;;;;;;6.88;5.38;;;;;;;25.08;58.87;99494.41;5090303;28;20281;-66
2022/07/29 00:55:36;;;;;;;6.83;5.83;;;;;;;25.12;58.81;99510.91;5092145;28;20291;-64
2022/07/29 00:58:03;;;;;;;8.67;5.97;;;;;;;25.07;59.37;99499.75;5092765;28;20276;-66
2022/07/29 01:00:31;;;;;;;6.20;5.60;;;;;;;25.08;59.69;99504.91;5093159;28;20190;-65
2022/07/29 01:02:58;;;;;;;7.25;6.55;;;;;;;25.03;59.62;99496.38;5092825;28;20922;-66
2022/07/29 01:05:29;;;;;;;7.25;6.55;;;;;;;25.02;59.77;99504.34;5093008;28;20629;-66
2022/07/29 01:07:57;;;;;;;6.80;6.15;;;;;;;24.96;60.19;99500.19;5093137;28;20195;-66
2022/07/29 01:10:26;;;;;;;7.03;6.43;;;;;;;24.94;60.45;99499.38;5092796;28;20214;-66
2022/07/29 01:12:55;;;;;;;6.80;6.10;;;;;;;24.91;61.03;99504.78;5092958;28;20286;-64
2022/07/29 01:15:23;;;;;;;6.80;6.20;;;;;;;24.94;60.90;99502.00;5093145;28;20230;-66
2022/07/29 01:17:58;;;;;;;7.40;6.70;;;;;;;24.92;61.29;99503.00;5092978;28;20519;-66
2022/07/29 01:20:32;;;;;;;6.38;5.78;;;;;;;24.94;61.44;99506.44;5092812;28;20213;-64
2022/07/29 01:23:47;;;;;;;9.43;6.37;;;;;;;24.92;61.45;99508.25;5092794;28;20286;-64
2022/07/29 01:26:39;;;;;;;7.43;6.40;;;;;;;24.85;61.56;99501.56;5030454;28;20192;-64
2022/07/29 01:29:13;;;;;;;6.83;6.00;;;;;;;24.85;62.00;99502.41;5092642;28;20198;-64
2022/07/29 01:31:46;;;;;;;8.00;6.50;;;;;;;24.84;62.28;99505.94;5092622;28;20243;-66
2022/07/29 01:34:19;;;;;;;6.83;6.23;;;;;;;24.79;61.93;99502.66;5092374;28;20685;-64
2022/07/29 01:36:49;;;;;;;11.43;6.90;;;;;;;24.82;62.08;99505.16;5092208;28;20195;-66
2022/07/29 01:39:22;;;;;;;9.57;7.32;;;;;;;24.78;62.14;99506.16;5092447;28;20440;-59
2022/07/29 01:41:56;;;;;;;9.00;7.80;;;;;;;24.78;62.04;99506.16;5092420;28;20187;-59
2022/07/29 01:44:31;;;;;;;11.10;7.80;;;;;;;24.75;62.10;99498.41;5092352;28;20187;-59
2022/07/29 01:47:01;;;;;;;9.07;8.20;;;;;;;24.70;61.89;99497.75;5092187;28;20209;-60
2022/07/29 01:49:30;;;;;;;9.33;8.53;;;;;;;24.67;62.03;99493.47;5092289;28;20190;-60
2022/07/29 01:52:03;;;;;;;8.93;8.13;;;;;;;24.64;62.41;99490.09;5092253;28;20198;-58
2022/07/29 01:54:35;;;;;;;15.83;9.20;;;;;;;24.60;62.41;99486.78;5092003;28;20562;-60
2022/07/29 01:57:04;;;;;;;9.30;8.40;;;;;;;24.54;62.95;99494.03;5092077;28;20341;-59
2022/07/29 01:59:36;;;;;;;11.02;9.68;;;;;;;24.58;62.79;99491.22;5091930;28;20199;-59
2022/07/29 02:02:08;;;;;;;9.53;8.60;;;;;;;24.60;62.70;99488.53;5091972;28;20225;-59
2022/07/29 02:04:37;;;;;;;8.90;8.10;;;;;;;24.57;62.61;99486.03;5092054;28;20197;-59
2022/07/29 02:07:07;;;;;;;10.87;9.07;;;;;;;24.56;62.40;99494.81;5091620;28;20197;-59
2022/07/29 02:09:37;;;;;;;10.43;8.60;;;;;;;24.54;62.99;99494.03;5091803;28;20202;-59
2022/07/29 02:12:06;;;;;;;10.70;8.77;;;;;;;24.53;63.21;99484.47;5091983;28;20198;-59
2022/07/29 02:14:41;;;;;;;9.70;8.70;;;;;;;24.57;63.23;99483.41;5091843;28;20226;-59
2022/07/29 02:17:08;;;;;;;9.53;8.63;;;;;;;24.54;63.10;99491.41;5091752;28;20186;-58
2022/07/29 02:19:39;;;;;;;9.43;8.40;;;;;;;24.57;63.35;99488.66;5090713;28;20195;-59
2022/07/29 02:22:06;;;;;;;8.85;7.93;;;;;;;24.51;63.43;99489.75;5090178;28;20428;-58
2022/07/29 02:24:36;;;;;;;8.97;7.47;;;;;;;24.56;62.90;99494.81;5091245;28;20217;-58
2022/07/29 02:27:04;;;;;;;11.93;7.90;;;;;;;24.51;63.15;99492.38;5091374;28;20195;-59
2022/07/29 02:29:33;;;;;;;8.37;7.47;;;;;;;24.42;63.43;99490.13;5091241;28;20191;-60
2022/07/29 02:32:03;;;;;;;8.40;7.67;;;;;;;24.39;63.83;99481.53;5091465;28;20266;-59
2022/07/29 02:34:31;;;;;;;7.57;6.87;;;;;;;24.39;63.59;99471.84;5091151;28;20218;-59
2022/07/29 02:37:00;;;;;;;8.55;7.78;;;;;;;24.34;63.71;99483.47;5090470;28;20489;-60
2022/07/29 02:39:30;;;;;;;9.57;8.27;;;;;;;24.35;63.76;99483.41;5091159;28;20195;-60
2022/07/29 02:42:02;;;;;;;8.37;7.47;;;;;;;24.30;64.15;99479.25;5091439;28;20195;-59
2022/07/29 02:44:29;;;;;;;9.90;7.97;;;;;;;24.25;64.07;99478.59;5091012;28;20557;-59
2022/07/29 02:47:04;;;;;;;8.50;7.37;;;;;;;24.22;64.59;99478.72;5088727;28;20194;-60
2022/07/29 02:49:37;;;;;;;8.23;7.43;;;;;;;24.19;65.27;99473.56;5088414;28;20205;-60
2022/07/29 02:52:08;;;;;;;8.40;7.33;;;;;;;24.16;64.91;99479.81;5088783;28;20187;-60
2022/07/29 02:54:40;;;;;;;11.13;7.47;;;;;;;24.15;64.81;99482.47;5090367;28;20263;-60
2022/07/29 02:57:13;;;;;;;17.00;7.03;;;;;;;24.10;64.62;99476.56;5090114;28;20242;-60
2022/07/29 02:59:43;;;;;;;7.57;6.80;;;;;;;24.02;64.04;99482.06;5088219;28;20356;-64
2022/07/29 03:02:14;;;;;;;11.98;7.40;;;;;;;24.05;63.89;99481.97;5085249;28;20444;-60
2022/07/29 03:04:43;;;;;;;7.63;6.93;;;;;;;24.08;63.76;99480.09;5084005;28;20187;-65
2022/07/29 03:07:13;;;;;;;7.63;6.93;;;;;;;24.11;63.68;99486.16;5090268;28;20565;-65
2022/07/29 03:09:42;;;;;;;7.57;6.10;;;;;;;24.06;63.33;99486.31;5088127;28;20183;-66
2022/07/29 03:12:10;;;;;;;8.67;6.70;;;;;;;24.06;62.96;99487.13;5090585;28;20195;-66
2022/07/29 03:14:39;;;;;;;6.93;6.33;;;;;;;24.09;62.90;99483.56;5090698;28;20271;-65
2022/07/29 03:17:06;;;;;;;8.90;6.93;;;;;;;24.04;63.27;99483.72;5091105;28;20190;-65
2022/07/29 03:19:35;;;;;;;12.23;6.93;;;;;;;24.04;63.39;99483.72;5090835;28;20214;-64
2022/07/29 03:22:02;;;;;;;7.40;6.80;;;;;;;24.02;63.94;99490.81;5090861;28;20229;-66
2022/07/29 03:24:31;;;;;;;10.43;7.90;;;;;;;24.02;63.75;99497.81;5090652;28;20203;-67
2022/07/29 03:26:58;;;;;;;7.90;7.17;;;;;;;23.98;63.96;99498.88;5090995;28;20975;-65
2022/07/29 03:29:26;;;;;;;9.90;7.50;;;;;;;23.81;63.85;99469.78;5089783;28;20198;-65
2022/07/29 03:31:53;;;;;;;10.73;7.60;;;;;;;23.95;63.58;99504.25;5090901;28;20202;-65
2022/07/29 03:34:20;;;;;;;9.03;7.80;;;;;;;23.94;63.26;99505.13;5090686;28;20202;-65
2022/07/29 03:36:48;;;;;;;10.48;7.65;;;;;;;23.96;63.17;99498.91;5090501;28;20435;-65
2022/07/29 03:39:19;;;;;;;8.33;7.00;;;;;;;24.00;62.97;99499.66;5090325;28;20195;-65
2022/07/29 03:41:48;;;;;;;13.23;7.67;;;;;;;24.02;63.08;99509.19;5090534;28;20191;-65
2022/07/29 03:44:17;;;;;;;9.30;7.13;;;;;;;23.96;63.21;99506.78;5090275;28;20194;-65
2022/07/29 03:46:46;;;;;;;9.67;8.17;;;;;;;23.99;63.17;99511.06;5090525;28;20206;-60
2022/07/29 03:49:17;;;;;;;10.00;7.53;;;;;;;23.85;62.37;99479.22;5089942;28;20175;-60
2022/07/29 03:51:44;;;;;;;8.60;7.70;;;;;;;23.95;62.35;99507.69;5090180;28;20240;-60
2022/07/29 03:54:13;;;;;;;10.33;7.20;;;;;;;24.00;61.89;99507.53;5090321;28;20183;-60
2022/07/29 03:56:45;;;;;;;9.30;7.30;;;;;;;23.97;62.24;99513.75;5089753;28;20229;-60
2022/07/29 03:59:13;;;;;;;10.25;7.97;;;;;;;23.95;62.14;99515.56;5089464;28;20440;-60
2022/07/29 04:01:41;;;;;;;8.83;7.30;;;;;;;23.99;61.58;99508.44;5089864;28;20198;-60
2022/07/29 04:04:08;;;;;;;10.50;8.30;;;;;;;23.94;61.40;99516.50;5090040;28;20251;-59
2022/07/29 04:06:40;;;;;;;9.07;8.13;;;;;;;23.95;61.98;99517.34;5089709;28;20195;-59
2022/07/29 04:09:07;;;;;;;14.87;7.97;;;;;;;24.01;61.17;99517.09;5089751;28;20577;-59
2022/07/29 04:11:36;;;;;;;9.47;8.57;;;;;;;23.93;61.97;99520.03;5090121;28;20191;-59
2022/07/29 04:14:03;;;;;;;13.03;9.10;;;;;;;23.96;62.50;99519.91;5089839;28;20214;-59
2022/07/29 04:16:30;;;;;;;17.57;10.13;;;;;;;23.99;62.66;99527.69;5089821;28;20715;-59
2022/07/29 04:18:57;;;;;;;10.30;9.33;;;;;;;23.99;62.68;99532.06;5089767;28;20194;-60
2022/07/29 04:21:24;;;;;;;11.57;9.07;;;;;;;23.93;63.24;99530.53;5088879;28;20194;-59
2022/07/29 04:23:51;;;;;;;10.67;9.57;;;;;;;23.92;63.25;99528.84;5089767;28;20203;-59
2022/07/29 04:26:18;;;;;;;13.00;10.23;;;;;;;23.97;63.51;99532.13;5087852;28;20195;-59
2022/07/29 04:28:47;;;;;;;12.37;9.27;;;;;;;23.93;63.42;99534.91;5088913;28;20286;-60
2022/07/29 04:31:14;;;;;;;12.93;10.80;;;;;;;23.96;63.97;99530.41;5089366;28;20195;-59
2022/07/29 04:33:41;;;;;;;12.57;11.20;;;;;;;23.93;63.48;99527.91;5089009;28;20206;-59
2022/07/29 04:36:08;;;;;;;17.57;11.73;;;;;;;23.91;63.38;99526.25;5089122;28;20471;-60
2022/07/29 04:38:35;;;;;;;12.43;11.23;;;;;;;23.95;63.32;99530.47;5089609;28;20546;-57
2022/07/29 04:41:01;;;;;;;13.27;11.57;;;;;;;23.99;62.91;99525.06;5089925;28;20190;-58
2022/07/29 04:43:28;;;;;;;17.67;10.93;;;;;;;23.98;62.95;99525.94;5089431;28;20693;-58
2022/07/29 04:45:56;;;;;;;11.00;10.00;;;;;;;23.92;62.56;99533.22;5090062;28;20199;-60
2022/07/29 04:48:23;;;;;;;9.43;8.50;;;;;;;23.98;62.49;99539.06;5093225;28;20198;-58
2022/07/29 04:50:50;;;;;;;9.97;9.00;;;;;;;24.03;61.39;99546.81;5087099;28;20290;-58
2022/07/29 04:53:17;;;;;;;8.60;7.13;;;;;;;24.07;60.76;99548.38;5092135;28;20183;-59
2022/07/29 04:55:44;;;;;;;9.18;8.27;;;;;;;24.07;61.06;99544.00;5092215;28;20440;-59
2022/07/29 04:58:11;;;;;;;7.67;6.83;;;;;;;24.10;61.30;99547.44;5086126;28;20239;-59
2022/07/29 05:00:38;;;;;;;9.40;7.47;;;;;;;24.13;61.32;99547.31;5074320;28;20662;-59
2022/07/29 05:03:06;;;;;;;10.33;7.70;;;;;;;24.22;61.19;99541.72;5072998;28;20186;-59
2022/07/29 05:05:34;;;;;;;8.80;7.90;;;;;;;24.27;61.06;99542.41;5079693;28;20187;-60
2022/07/29 05:08:01;;;;;;;14.27;8.97;;;;;;;24.31;61.74;99546.66;5085408;28;20199;-60
2022/07/29 05:10:28;;;;;;;8.67;7.97;;;;;;;24.34;61.20;99549.13;5073775;28;20199;-60
2022/07/29 05:12:55;;;;;;;12.17;9.03;;;;;;;24.40;61.97;99552.38;5072354;28;20241;-60
2022/07/29 05:15:22;;;;;;;10.60;9.60;;;;;;;24.51;61.37;99549.31;5072082;28;20563;-59
2022/07/29 05:17:49;;;;;;;10.03;8.90;;;;;;;24.54;61.75;99549.22;5077678;28;20190;-59
2022/07/29 05:20:18;;;;;;;10.97;9.03;;;;;;;24.62;61.61;99561.13;5091317;28;20203;-65
2022/07/29 05:22:44;;;;;;;10.97;9.47;;;;;;;24.66;61.31;99556.63;5092494;28;20329;-65
2022/07/29 05:25:11;;;;;;;9.17;8.47;;;;;;;24.79;60.89;99563.13;5092465;28;20239;-65
2022/07/29 05:27:38;;;;;;;12.47;8.83;;;;;;;24.83;60.37;99555.97;5092296;28;20198;-65
2022/07/29 05:30:06;;;;;;;10.37;8.37;;;;;;;24.91;59.65;99546.00;5092381;28;20213;-66
2022/07/29 05:32:33;;;;;;;9.80;8.70;;;;;;;25.05;59.77;99560.25;5091881;28;20573;-64
2022/07/29 05:35:00;;;;;;;10.02;8.48;;;;;;;25.10;58.43;99555.69;5090525;28;20516;-65
2022/07/29 05:37:28;;;;;;;11.30;8.47;;;;;;;25.29;57.95;99560.16;5091928;28;20503;-65
2022/07/29 05:39:55;;;;;;;9.77;8.33;;;;;;;25.39;57.88;99564.09;5091850;28;20191;-64
2022/07/29 05:42:21;;;;;;;9.40;8.43;;;;;;;25.44;57.26;99549.84;5091742;28;20202;-65
2022/07/29 05:44:48;;;;;;;9.03;8.23;;;;;;;25.50;57.07;99559.28;5090253;28;20539;-67
2022/07/29 05:47:15;;;;;;;11.43;8.90;;;;;;;25.59;56.89;99559.75;5086863;28;20201;-65
2022/07/29 05:49:42;;;;;;;9.10;8.20;;;;;;;25.68;56.25;99563.75;5091997;28;20193;-67
2022/07/29 05:52:09;;;;;;;10.60;9.43;;;;;;;25.74;56.37;99568.72;5091267;28;20187;-65
2022/07/29 05:54:37;;;;;;;9.73;8.73;;;;;;;25.82;56.45;99577.16;5087319;28;20451;-67
2022/07/29 05:57:05;;;;;;;9.32;8.13;;;;;;;25.93;55.69;99580.13;5090094;28;20580;-67
2022/07/29 05:59:32;;;;;;;8.70;7.78;;;;;;;25.99;55.69;99585.13;5091713;28;20203;-67
2022/07/29 06:01:59;;;;;;;9.47;8.57;;;;;;;26.09;55.37;99578.56;5077577;28;20684;-66
2022/07/29 06:04:26;;;;;;;9.15;8.32;;;;;;;26.17;54.96;99571.19;5071755;28;20237;-67
2022/07/29 06:06:52;;;;;;;9.23;8.32;;;;;;;25.96;54.94;99522.06;5070924;28;20199;-66
2022/07/29 06:09:20;;;;;;;11.20;10.02;;;;;;;26.29;55.27;99570.59;5071024;28;20662;-67
2022/07/29 06:11:48;;;;;;;10.73;9.52;;;;;;;26.31;55.62;99566.13;5070843;28;20192;-67
2022/07/29 06:14:15;;;;;;;11.48;10.20;;;;;;;26.34;55.51;99580.94;5070718;28;20673;-67
2022/07/29 06:16:42;;;;;;;10.18;9.27;;;;;;;26.41;55.60;99571.81;5070492;28;20246;-65
2022/07/29 06:19:09;;;;;;;10.77;9.77;;;;;;;26.31;55.69;99574.03;5071160;28;20202;-67
2022/07/29 06:21:36;;;;;;;10.90;9.32;;;;;;;26.30;56.09;99572.31;5069056;28;20207;-67
2022/07/29 06:24:03;;;;;;;11.07;10.18;;;;;;;26.23;56.28;99576.13;5066782;28;20190;-67
2022/07/29 06:26:29;;;;;;;16.65;10.18;;;;;;;26.33;56.29;99569.53;5067678;28;20188;-67
2022/07/29 06:28:58;;;;;;;11.47;10.13;;;;;;;26.38;56.31;99571.94;5069113;28;20187;-67
2022/07/29 06:31:25;;;;;;;11.35;10.15;;;;;;;26.52;56.10;99572.16;5069334;28;20242;-66
2022/07/29 06:33:52;;;;;;;11.90;10.60;;;;;;;26.50;55.79;99574.03;5068330;28;20441;-67
2022/07/29 06:36:19;;;;;;;10.98;9.95;;;;;;;26.55;55.49;99571.16;5069503;28;20341;-67
2022/07/29 06:38:46;;;;;;;12.35;10.98;;;;;;;26.61;55.42;99570.88;5069923;28;20207;-67
2022/07/29 06:41:15;;;;;;;18.25;14.98;;;;;;;26.80;55.48;99569.09;5070338;28;20199;-66
2022/07/29 06:43:43;;;;;;;13.07;11.68;;;;;;;26.99;55.13;99561.97;5069419;28;20192;-67
2022/07/29 06:46:13;;;;;;;13.68;10.43;;;;;;;27.08;54.27;99561.53;5069825;28;20672;-67
2022/07/29 06:48:41;;;;;;;14.70;10.48;;;;;;;27.05;54.44;99572.22;5069658;28;20183;-67
2022/07/29 06:51:09;;;;;;;11.52;10.48;;;;;;;27.18;53.89;99561.91;5069713;28;20199;-67
2022/07/29 06:53:36;;;;;;;12.75;11.20;;;;;;;27.07;54.07;99564.22;5069069;28;20437;-67
2022/07/29 06:56:05;;;;;;;11.60;10.27;;;;;;;27.08;54.30;99566.81;5069435;28;20220;-67
2022/07/29 06:58:32;;;;;;;11.23;10.20;;;;;;;27.17;54.49;99555.78;5069654;28;20250;-67
2022/07/29 07:01:03;;;;;;;11.55;10.38;;;;;;;27.30;55.16;99550.75;5069566;28;20217;-68
2022/07/29 07:03:32;;;;;;;12.15;10.98;;;;;;;27.47;54.31;99551.59;5068972;28;20195;-66
2022/07/29 07:05:59;;;;;;;10.45;9.48;;;;;;;27.59;53.14;99552.75;5069306;28;20200;-67
2022/07/29 07:08:26;;;;;;;11.88;10.75;;;;;;;27.57;53.07;99551.13;5068847;28;20240;-67
2022/07/29 07:10:53;;;;;;;12.27;9.98;;;;;;;27.42;52.97;99553.63;5069133;28;20196;-67
2022/07/29 07:13:20;;;;;;;11.75;9.70;;;;;;;27.39;53.34;99550.25;5069304;28;20191;-67
2022/07/29 07:15:48;;;;;;;12.35;11.25;;;;;;;27.59;53.21;99547.47;5069178;28;20222;-67
2022/07/29 07:18:15;;;;;;;13.30;10.27;;;;;;;27.72;52.64;99551.19;5069618;28;20273;-67
2022/07/29 07:20:44;;;;;;;12.55;11.25;;;;;;;27.77;52.58;99553.59;5068998;28;20645;-67
2022/07/29 07:23:11;;;;;;;14.55;11.23;;;;;;;27.80;52.20;99545.50;5068957;28;20203;-68
2022/07/29 07:25:38;;;;;;;12.75;11.35;;;;;;;27.88;52.22;99557.34;5069708;28;20195;-67
2022/07/29 07:28:05;;;;;;;11.27;10.18;;;;;;;28.03;51.51;99563.63;5069262;28;20191;-67
2022/07/29 07:30:32;;;;;;;11.40;9.73;;;;;;;28.12;50.64;99547.31;5069378;28;20253;-67
2022/07/29 07:33:00;;;;;;;12.27;9.15;;;;;;;28.27;49.02;99553.50;5069306;28;20602;-67
2022/07/29 07:35:27;;;;;;;9.75;8.73;;;;;;;28.35;47.60;99546.88;5069425;28;20195;-67
2022/07/29 07:37:57;;;;;;;10.00;9.00;;;;;;;28.38;47.36;99552.00;5069054;28;20219;-66
2022/07/29 07:40:25;;;;;;;10.93;8.48;;;;;;;28.52;47.41;99557.38;5069145;28;20182;-67
2022/07/29 07:42:52;;;;;;;13.07;10.43;;;;;;;28.70;47.74;99552.88;5069221;28;20203;-67
2022/07/29 07:45:19;;;;;;;12.07;9.68;;;;;;;28.80;46.27;99553.19;5069039;28;20199;-66
2022/07/29 07:47:46;;;;;;;11.50;9.32;;;;;;;28.90;45.78;99547.28;5069036;28;20188;-67
2022/07/29 07:50:13;;;;;;;16.40;8.50;;;;;;;28.98;45.66;99545.03;5069306;28;20290;-67
2022/07/29 07:52:48;;;;;;;9.60;7.55;;;;;;;28.98;45.02;99550.31;5068919;28;20301;-67
2022/07/29 07:55:17;;;;;;;11.35;8.73;;;;;;;29.07;45.24;99548.94;5067839;28;20859;-67
2022/07/29 07:57:44;;;;;;;21.40;8.75;;;;;;;29.12;44.62;99542.44;5068804;28;20223;-65
2022/07/29 08:00:12;;;;;;;11.85;7.82;;;;;;;29.19;44.10;99551.75;5069237;28;20195;-67
2022/07/29 08:02:39;;;;;;;7.90;7.07;;;;;;;29.13;43.06;99536.22;5068805;28;20263;-67
2022/07/29 08:05:07;;;;;;;7.38;5.75;;;;;;;29.19;41.88;99538.50;5068930;28;20624;-67
2022/07/29 08:07:34;;;;;;;5.80;5.30;;;;;;;29.11;41.05;99539.91;5069006;28;20192;-66
2022/07/29 08:10:01;;;;;;;10.23;8.98;;;;;;;29.21;40.78;99539.28;5068778;28;20601;-67
2022/07/29 08:12:29;;;;;;;9.27;6.07;;;;;;;29.34;40.66;99536.75;5068725;28;20199;-67
2022/07/29 08:14:56;;;;;;;7.15;6.45;;;;;;;29.27;40.87;99537.22;5068889;28;20555;-67
2022/07/29 08:17:23;;;;;;;6.95;6.07;;;;;;;29.31;39.15;99541.41;5068736;28;20239;-67
2022/07/29 08:19:50;;;;;;;6.20;5.57;;;;;;;29.33;39.46;99535.06;5068692;28;20658;-66
2022/07/29 08:22:16;;;;;;;6.88;5.63;;;;;;;29.40;39.72;99543.47;5071789;28;20196;-66
2022/07/29 08:24:43;;;;;;;7.05;5.85;;;;;;;29.36;38.82;99550.78;5072686;28;20191;-67
2022/07/29 08:27:10;;;;;;;5.68;5.05;;;;;;;29.19;38.75;99549.09;5073031;28;20187;-67
2022/07/29 08:29:39;;;;;;;8.13;7.32;;;;;;;29.31;39.84;99547.53;5072809;28;20192;-65
2022/07/29 08:32:07;;;;;;;7.53;5.43;;;;;;;29.58;37.73;99545.03;5071951;28;20595;-67
2022/07/29 08:34:33;;;;;;;6.75;6.00;;;;;;;29.76;37.94;99535.97;5072301;28;20199;-67
2022/07/29 08:37:00;;;;;;;8.18;7.20;;;;;;;29.83;37.58;99528.53;5072335;28;20222;-67
2022/07/29 08:39:27;;;;;;;9.15;8.13;;;;;;;29.99;37.06;99524.84;5072368;28;20187;-67
2022/07/29 08:41:54;;;;;;;6.28;5.68;;;;;;;30.07;36.17;99525.19;5072468;28;20493;-67
2022/07/29 08:44:22;;;;;;;7.63;6.93;;;;;;;30.18;37.12;99524.53;5072566;28;20268;-67
2022/07/29 08:46:50;;;;;;;6.00;5.40;;;;;;;30.31;35.96;99525.44;5072318;28;20191;-66
2022/07/29 08:49:17;;;;;;;9.38;8.50;;;;;;;30.47;36.47;99517.38;5072427;28;20192;-67
2022/07/29 08:51:45;;;;;;;5.55;5.15;;;;;;;30.18;35.13;99469.72;5072403;28;20344;-66
2022/07/29 08:54:17;;;;;;;5.60;5.10;;;;;;;30.64;35.16;99517.97;5071602;28;20434;-67
2022/07/29 08:56:44;;;;;;;8.52;7.82;;;;;;;30.85;34.39;99513.91;5072210;28;20224;-67
2022/07/29 08:59:12;;;;;;;11.02;5.55;;;;;;;30.95;33.01;99506.22;5072033;28;20209;-67
2022/07/29 09:01:40;;;;;;;5.90;4.93;;;;;;;30.91;31.91;99507.34;5071862;28;20187;-66
2022/07/29 09:04:12;;;;;;;7.30;6.60;;;;;;;30.97;33.38;99501.66;5072139;28;20260;-65
2022/07/29 09:06:43;;;;;;;6.82;5.75;;;;;;;30.99;33.90;99501.56;5071886;28;20198;-68
2022/07/29 09:09:10;;;;;;;6.55;5.95;;;;;;;30.96;33.09;99497.28;5072340;28;20200;-67
2022/07/29 09:11:39;;;;;;;7.90;6.63;;;;;;;30.88;33.45;99481.00;5072081;28;20202;-66
2022/07/29 09:14:06;;;;;;;5.32;4.88;;;;;;;30.89;32.12;99499.50;5071675;28;20187;-66
2022/07/29 09:16:46;;;;;;;6.60;5.75;;;;;;;30.93;33.25;99490.38;5071503;28;20616;-68
2022/07/29 09:19:23;;;;;;;8.57;6.10;;;;;;;31.12;33.78;99491.81;5071812;28;20191;-67
2022/07/29 09:21:58;;;;;;;6.60;5.85;;;;;;;31.16;33.44;99487.97;5071418;28;20195;-66
2022/07/29 09:24:27;;;;;;;6.80;6.18;;;;;;;31.18;33.61;99486.91;5071598;28;20195;-67
2022/07/29 09:26:54;;;;;;;6.15;4.57;;;;;;;31.05;32.05;99482.53;5071529;28;20573;-68
2022/07/29 09:29:23;;;;;;;6.63;5.60;;;;;;;31.11;32.36;99476.84;5071808;28;20670;-66
2022/07/29 09:31:52;;;;;;;6.43;5.82;;;;;;;31.30;32.45;99482.56;5071456;28;20195;-67
2022/07/29 09:34:24;;;;;;;5.63;5.10;;;;;;;31.35;31.52;99475.13;5071278;28;20192;-66
2022/07/29 09:36:53;;;;;;;6.55;5.25;;;;;;;31.47;31.83;99477.84;5071303;28;20223;-68
2022/07/29 09:39:29;;;;;;;6.07;5.45;;;;;;;31.55;31.09;99482.63;5071365;28;20551;-68
2022/07/29 09:41:58;;;;;;;5.25;4.85;;;;;;;31.61;31.24;99474.22;5071304;28;20191;-67
2022/07/29 09:44:25;;;;;;;8.18;6.45;;;;;;;31.69;31.63;99479.84;5071191;28;20194;-68
2022/07/29 09:46:57;;;;;;;8.90;6.60;;;;;;;31.78;31.55;99479.16;5071595;28;20257;-68
2022/07/29 09:49:26;;;;;;;7.22;5.03;;;;;;;31.77;31.64;99466.88;5071129;28;20206;-68
2022/07/29 09:52:07;;;;;;;5.63;4.90;;;;;;;31.83;31.40;99473.56;5071122;28;20192;-68
2022/07/29 09:54:37;;;;;;;7.30;5.18;;;;;;;31.79;30.99;99472.91;5070675;28;20298;-67
2022/07/29 09:57:06;;;;;;;6.07;5.47;;;;;;;31.94;31.36;99471.84;5070797;28;20228;-66
2022/07/29 09:59:33;;;;;;;9.20;5.88;;;;;;;31.99;29.76;99460.84;5070901;28;20191;-68
2022/07/29 10:02:00;;;;;;;7.63;5.93;;;;;;;31.84;29.25;99414.09;5071127;28;20195;-67
2022/07/29 10:04:43;;;;;;;5.40;4.90;;;;;;;32.09;28.74;99452.13;5070880;28;20202;-67
2022/07/29 10:07:10;;;;;;;8.55;5.95;;;;;;;32.16;28.98;99463.19;5069193;28;20223;-67
2022/07/29 10:09:37;;;;;;;5.70;5.10;;;;;;;32.23;29.70;99464.41;5070697;28;20192;-67
2022/07/29 10:12:10;;;;;;;9.15;5.07;;;;;;;32.36;29.26;99464.38;5071307;28;20608;-67
2022/07/29 10:14:38;;;;;;;4.30;4.00;;;;;;;32.41;28.67;99463.09;5070737;28;20275;-67
2022/07/29 10:17:06;;;;;;;6.85;6.00;;;;;;;32.49;28.81;99459.84;5070033;28;20233;-67
2022/07/29 10:19:34;;;;;;;6.68;4.55;;;;;;;32.48;26.84;99463.47;5070767;28;20195;-67
2022/07/29 10:22:04;;;;;;;4.70;4.25;;;;;;;32.47;28.31;99461.78;5070701;28;20198;-68
2022/07/29 10:24:33;;;;;;;5.63;5.10;;;;;;;32.53;28.47;99455.97;5071127;28;20247;-68
2022/07/29 10:27:02;;;;;;;6.78;4.40;;;;;;;32.64;28.44;99456.91;5070998;28;20203;-68
2022/07/29 10:29:31;;;;;;;5.25;4.75;;;;;;;32.66;28.65;99449.66;5070620;28;20199;-68
2022/07/29 10:32:22;;;;;;;6.22;5.20;;;;;;;32.31;28.82;99400.88;5070209;28;20434;-67
2022/07/29 10:35:05;;;;;;;7.50;5.15;;;;;;;32.67;29.21;99427.41;5070303;28;20687;-66
2022/07/29 10:37:47;;;;;;;5.80;4.65;;;;;;;32.80;28.76;99442.47;5070387;28;20288;-67
2022/07/29 10:43:18;;;;;;;7.13;4.88;;;;;;;32.71;29.29;99437.84;5070237;28;20602;-67
2022/07/29 10:45:47;;;;;;;4.85;4.50;;;;;;;32.85;30.77;99427.84;5070335;28;20682;-68
2022/07/29 10:48:14;;;;;;;6.95;4.82;;;;;;;32.98;29.01;99425.94;5070446;28;20223;-66
2022/07/29 10:50:59;;;;;;;9.05;5.53;;;;;;;32.96;29.29;99421.69;5070295;28;20207;-66
2022/07/29 10:53:48;;;;;;;5.78;4.80;;;;;;;33.15;29.67;99416.69;5070670;28;20195;-66
2022/07/29 10:56:25;;;;;;;8.27;5.57;;;;;;;33.09;28.00;99415.34;5070390;28;20252;-67
2022/07/29 10:59:25;;;;;;;7.30;5.32;;;;;;;33.12;28.80;99401.78;5070497;28;20223;-67
2022/07/29 11:01:54;;;;;;;4.80;4.40;;;;;;;33.22;29.71;99405.44;5070397;28;20202;-67
2022/07/29 11:04:54;;;;;;;6.93;5.30;;;;;;;33.22;28.37;99407.22;5070251;28;20197;-68
2022/07/29 11:07:22;;;;;;;5.88;4.85;;;;;;;33.21;29.42;99398.38;5070280;28;20283;-68
2022/07/29 11:10:24;;;;;;;6.68;4.80;;;;;;;33.23;29.26;99388.47;5070293;28;20200;-66
2022/07/29 11:12:52;;;;;;;9.80;8.88;;;;;;;33.28;29.71;99395.25;5069989;28;20191;-68
2022/07/29 11:15:20;;;;;;;7.03;6.32;;;;;;;33.28;30.14;99390.78;5070094;28;20191;-68
2022/07/29 11:18:08;;;;;;;5.63;4.78;;;;;;;33.28;29.30;99385.44;5069932;28;20215;-67
2022/07/29 11:20:41;;;;;;;5.97;5.30;;;;;;;33.31;29.19;99379.88;5070173;28;20192;-68
2022/07/29 11:23:24;;;;;;;5.75;5.32;;;;;;;33.16;28.92;99379.25;5069966;28;20210;-67
2022/07/29 11:26:24;;;;;;;5.15;4.72;;;;;;;33.20;29.93;99386.06;5070231;28;20179;-68
2022/07/29 11:28:55;;;;;;;5.30;4.95;;;;;;;32.95;30.50;99385.38;5069608;28;20692;-67
2022/07/29 11:31:35;;;;;;;5.18;4.78;;;;;;;32.84;30.67;99380.03;5070375;28;20191;-68
2022/07/29 11:34:21;;;;;;;6.38;5.32;;;;;;;32.96;30.99;99371.97;5069733;28;20260;-67
2022/07/29 11:37:19;;;;;;;5.28;4.18;;;;;;;33.04;30.65;99382.00;5069538;28;20206;-67
2022/07/29 11:39:48;;;;;;;7.13;5.22;;;;;;;33.02;30.67;99374.13;5069901;28;20637;-67
2022/07/29 11:42:46;;;;;;;5.25;4.85;;;;;;;33.28;30.60;99369.47;5069816;28;20210;-67
2022/07/29 11:45:18;;;;;;;5.80;5.03;;;;;;;33.47;30.14;99364.38;5070206;28;20252;-68